KBTR/BTR METAR and TAF weather

Enter ICAO airport designator
Station Type Date Time Source
KBTR METAR 2018/01/21 11:53 UTC NOAA

KBTR 211153Z AUTO 10005KT 10SM CLR 10/09 A3013 RMK AO2 SLP201 70009 T01000094 10111 20100 55000 TSNO


Station Type Date Time Source
KBTR Decoded METAR 2018/01/21 11:53 UTC NOAA

BATON ROUGE METRO RYAN FIELD, LA, United States (KBTR) 30-32N 91-09W 21M
Jan 21, 2018 - 06:53 AM EST / 2018.01.21 1153 UTC
Wind: from the E (100 degrees) at 6 MPH (5 KT):0
Visibility: 10 mile(s):0
Sky conditions: clear
Temperature: 50.0 F (10.0 C)
Dew Point: 48.9 F (9.4 C)
Relative Humidity: 96%
Pressure (altimeter): 30.13 in. Hg (1020 hPa)
Pressure tendency: 0.00 inches (0.0 hPa) lower than three hours ago
ob: KBTR 211153Z AUTO 10005KT 10SM CLR 10/09 A3013 RMK AO2 SLP201 70009 T01000094 10111 20100 55000 TSNO
cycle: 12

Station Type Date Time Source
KBTR TAF 2018/01/21 12:30 UTC NOAA

TAF KBTR 211127Z 2112/2212 12005KT P6SM SCT015
FM211500 15010KT P6SM BKN050
FM212000 15010KT P6SM BKN030
FM220500 14009KT 5SM BR OVC008
FM220900 15009KT 4SM -RA OVC008


Example: see airport list